createdAt,value
2017-04-17T00:00:37.305Z,8.73
2017-04-17T00:01:35.698Z,10.03
2017-04-17T00:02:34.026Z,10.87
2017-04-17T00:03:33.167Z,7.93
2017-04-17T00:04:32.233Z,8.72
2017-04-17T00:05:30.550Z,10.55
2017-04-17T00:06:28.993Z,8.48
2017-04-17T00:07:27.330Z,7.53
2017-04-17T00:08:25.645Z,8.63
2017-04-17T00:09:23.989Z,9.38
2017-04-17T00:10:22.361Z,9.30
2017-04-17T00:11:20.719Z,9.45
2017-04-17T00:12:19.108Z,6.90
2017-04-17T00:13:17.442Z,8.48
2017-04-17T00:14:15.778Z,8.75
2017-04-17T00:15:14.122Z,9.03
2017-04-17T00:16:12.498Z,8.15
2017-04-17T00:17:10.878Z,9.12
2017-04-17T00:18:09.182Z,9.72
2017-04-17T00:19:07.553Z,8.73
2017-04-17T00:20:05.873Z,9.67
2017-04-17T00:21:04.234Z,19.35
2017-04-17T00:22:01.853Z,7.40
2017-04-17T00:23:00.186Z,9.57
2017-04-17T00:23:58.517Z,6.40
2017-04-17T00:24:56.874Z,9.30
2017-04-17T00:25:55.222Z,8.68
2017-04-17T00:26:53.611Z,10.70
2017-04-17T00:27:51.975Z,6.65
2017-04-17T00:28:50.326Z,14.95
2017-04-17T00:29:48.650Z,6.62
2017-04-17T00:30:47.004Z,8.95
2017-04-17T00:31:45.350Z,8.68
2017-04-17T00:32:43.726Z,8.18
2017-04-17T00:33:42.065Z,9.62
2017-04-17T00:34:40.407Z,10.65
2017-04-17T00:35:38.726Z,10.92
2017-04-17T00:36:36.319Z,10.57
2017-04-17T00:37:34.619Z,6.58
2017-04-17T00:38:32.943Z,6.78
2017-04-17T00:39:31.282Z,7.77
2017-04-17T00:40:29.662Z,6.98
2017-04-17T00:41:28.558Z,6.92
2017-04-17T00:42:26.886Z,6.82
2017-04-17T00:43:25.282Z,6.73
2017-04-17T00:44:23.630Z,7.72
2017-04-17T00:45:21.971Z,9.85
2017-04-17T00:46:20.270Z,7.42
2017-04-17T00:47:18.843Z,7.23
2017-04-17T00:48:17.166Z,7.28
2017-04-17T00:49:15.552Z,6.23
2017-04-17T00:50:13.878Z,7.67
2017-04-17T00:51:12.225Z,6.43
2017-04-17T00:52:10.567Z,10.38
2017-04-17T00:53:08.859Z,9.78
2017-04-17T00:54:07.198Z,5.95
2017-04-17T00:55:05.546Z,9.02
2017-04-17T00:56:03.858Z,6.67
2017-04-17T00:57:02.243Z,8.97
2017-04-17T00:58:00.554Z,6.33
2017-04-17T00:58:58.919Z,5.88
2017-04-17T00:59:57.251Z,6.73
2017-04-17T01:00:55.653Z,9.08
2017-04-17T01:01:54.025Z,9.63
2017-04-17T01:02:52.417Z,7.00
2017-04-17T01:03:50.802Z,8.40
2017-04-17T01:04:49.158Z,7.73
2017-04-17T01:05:47.470Z,9.02
2017-04-17T01:06:45.805Z,9.67
2017-04-17T01:07:44.131Z,5.92
2017-04-17T01:08:42.483Z,6.65
2017-04-17T01:09:40.846Z,6.03
2017-04-17T01:10:39.166Z,6.97
2017-04-17T01:11:37.497Z,11.95
2017-04-17T01:12:35.850Z,6.77
2017-04-17T01:13:34.179Z,6.87
2017-04-17T01:14:32.525Z,8.08
2017-04-17T01:15:30.914Z,7.83
2017-04-17T01:16:29.243Z,10.65
2017-04-17T01:17:27.587Z,11.53
2017-04-17T01:18:25.966Z,6.30
2017-04-17T01:19:24.277Z,9.82
2017-04-17T01:20:22.606Z,6.43
2017-04-17T01:21:20.915Z,6.85
2017-04-17T01:22:19.238Z,6.35
2017-04-17T01:23:17.602Z,8.30
2017-04-17T01:24:15.942Z,6.30
2017-04-17T01:25:14.302Z,6.55
2017-04-17T01:26:12.650Z,10.38
2017-04-17T01:27:11.555Z,6.47
2017-04-17T01:28:09.898Z,8.52
2017-04-17T01:29:08.282Z,7.88
2017-04-17T01:30:06.646Z,8.45
2017-04-17T01:31:04.982Z,6.93
2017-04-17T01:32:03.331Z,14.48
2017-04-17T01:33:01.642Z,8.02
2017-04-17T01:33:59.995Z,8.27
2017-04-17T01:34:58.327Z,6.22
2017-04-17T01:35:56.630Z,6.78
2017-04-17T01:36:54.938Z,10.33
2017-04-17T01:37:53.284Z,10.08
2017-04-17T01:38:51.822Z,7.13
2017-04-17T01:39:50.278Z,7.05
2017-04-17T01:40:48.589Z,7.05
2017-04-17T01:41:47.009Z,9.97
2017-04-17T01:42:45.325Z,5.98
2017-04-17T01:43:43.699Z,8.62
2017-04-17T01:44:42.014Z,9.55
2017-04-17T01:45:40.371Z,8.27
2017-04-17T01:46:38.729Z,7.23
2017-04-17T01:47:37.098Z,9.05
2017-04-17T01:48:35.438Z,5.77
2017-04-17T01:49:33.942Z,7.92
2017-04-17T01:50:32.275Z,6.87
2017-04-17T01:51:30.611Z,6.77
2017-04-17T01:52:28.954Z,11.07
2017-04-17T01:53:27.286Z,6.13
2017-04-17T01:54:25.699Z,7.37
2017-04-17T01:55:24.062Z,9.63
2017-04-17T01:56:23.270Z,6.18
2017-04-17T01:57:21.602Z,6.95
2017-04-17T01:58:19.939Z,6.75
2017-04-17T01:59:18.272Z,9.20
2017-04-17T02:00:16.694Z,7.13
2017-04-17T02:01:14.321Z,10.83
2017-04-17T02:02:12.714Z,7.35
2017-04-17T02:03:11.041Z,6.20
2017-04-17T02:04:09.406Z,10.35
2017-04-17T02:05:07.777Z,6.87
2017-04-17T02:06:06.086Z,8.20
2017-04-17T02:07:04.463Z,6.82
2017-04-17T02:08:02.824Z,7.02
2017-04-17T02:09:01.149Z,7.28
2017-04-17T02:09:59.546Z,6.85
2017-04-17T02:10:57.935Z,8.82
2017-04-17T02:11:56.250Z,12.00
2017-04-17T02:12:54.605Z,9.02
2017-04-17T02:13:52.954Z,8.92
2017-04-17T02:14:51.262Z,6.28
2017-04-17T02:15:48.834Z,7.28
2017-04-17T02:16:47.197Z,6.72
2017-04-17T02:17:45.485Z,6.67
2017-04-17T02:18:43.892Z,9.95
2017-04-17T02:19:41.486Z,12.10
2017-04-17T02:20:39.811Z,6.82
2017-04-17T02:21:38.991Z,7.53
2017-04-17T02:22:37.303Z,9.55
2017-04-17T02:23:35.654Z,6.53
2017-04-17T02:24:34.043Z,8.95
2017-04-17T02:25:32.368Z,6.57
2017-04-17T02:26:31.057Z,9.45
2017-04-17T02:27:29.390Z,6.33
2017-04-17T02:28:26.984Z,7.48
2017-04-17T02:29:25.310Z,10.05
2017-04-17T02:30:23.922Z,10.33
2017-04-17T02:31:22.334Z,6.85
2017-04-17T02:32:20.646Z,9.98
2017-04-17T02:33:19.004Z,9.27
2017-04-17T02:34:17.326Z,12.00
2017-04-17T02:35:15.682Z,9.93
2017-04-17T02:36:13.289Z,6.32
2017-04-17T02:37:11.636Z,11.62
2017-04-17T02:38:10.025Z,7.70
2017-04-17T02:39:08.374Z,9.20
2017-04-17T02:40:06.722Z,8.28
2017-04-17T02:41:05.067Z,6.68
2017-04-17T02:42:03.406Z,8.45
2017-04-17T02:43:01.746Z,8.50
2017-04-17T02:44:00.198Z,8.27
2017-04-17T02:44:58.522Z,6.47
2017-04-17T02:45:56.846Z,8.47
2017-04-17T02:46:55.157Z,6.53
2017-04-17T02:47:53.530Z,5.30
2017-04-17T02:48:51.857Z,6.57
2017-04-17T02:49:49.450Z,11.58
2017-04-17T02:50:47.787Z,6.17
2017-04-17T02:51:46.122Z,7.08
2017-04-17T02:52:44.842Z,11.80
2017-04-17T02:53:43.198Z,10.95
2017-04-17T02:54:41.501Z,5.95
2017-04-17T02:55:39.814Z,6.95
2017-04-17T02:56:38.147Z,6.35
2017-04-17T02:57:36.453Z,9.15
2017-04-17T02:58:34.023Z,10.17
2017-04-17T02:59:32.348Z,10.40
2017-04-17T03:00:30.667Z,6.50
2017-04-17T03:01:29.037Z,6.63
2017-04-17T03:02:27.367Z,7.83
2017-04-17T03:03:25.695Z,11.73
2017-04-17T03:04:24.065Z,6.78
2017-04-17T03:05:23.618Z,9.87
2017-04-17T03:06:21.983Z,7.75
2017-04-17T03:07:20.363Z,7.68
2017-04-17T03:08:19.328Z,7.50
2017-04-17T03:09:17.839Z,10.15
2017-04-17T03:10:16.153Z,6.90
2017-04-17T03:11:14.678Z,7.33
2017-04-17T03:12:13.011Z,8.63
2017-04-17T03:13:11.327Z,7.03
2017-04-17T03:14:09.647Z,7.37
2017-04-17T03:15:07.958Z,7.70
2017-04-17T03:16:06.341Z,7.23
2017-04-17T03:17:04.698Z,10.42
2017-04-17T03:18:03.024Z,8.00
2017-04-17T03:19:01.377Z,9.33
2017-04-17T03:19:59.674Z,7.08
2017-04-17T03:20:57.998Z,10.12
2017-04-17T03:21:55.598Z,10.40
2017-04-17T03:22:53.966Z,8.38
2017-04-17T03:23:52.301Z,7.50
2017-04-17T03:24:50.659Z,10.00
2017-04-17T03:25:48.962Z,7.72
2017-04-17T03:26:47.619Z,7.42
2017-04-17T03:27:45.922Z,12.83
2017-04-17T03:28:44.264Z,10.58
2017-04-17T03:29:42.574Z,8.93
2017-04-17T03:30:40.923Z,6.67
2017-04-17T03:31:39.294Z,6.63
2017-04-17T03:32:37.615Z,8.28
2017-04-17T03:33:35.211Z,11.45
2017-04-17T03:34:32.794Z,9.10
2017-04-17T03:35:31.102Z,7.40
2017-04-17T03:36:29.409Z,7.08
2017-04-17T03:37:27.747Z,9.28
2017-04-17T03:38:26.131Z,6.48
2017-04-17T03:39:24.444Z,7.03
2017-04-17T03:40:23.022Z,8.07
2017-04-17T03:41:21.407Z,7.20
2017-04-17T03:42:19.714Z,7.32
2017-04-17T03:43:18.007Z,9.75
2017-04-17T03:44:16.302Z,11.88
2017-04-17T03:45:14.654Z,7.82
2017-04-17T03:46:12.974Z,12.10
2017-04-17T03:47:10.575Z,7.30
2017-04-17T03:48:08.943Z,7.23
2017-04-17T03:49:08.014Z,8.47
2017-04-17T03:50:06.358Z,6.67
2017-04-17T03:51:04.760Z,7.73
2017-04-17T03:52:03.230Z,7.43
2017-04-17T03:53:01.619Z,7.77
2017-04-17T03:53:59.979Z,6.95
2017-04-17T03:54:58.402Z,9.08
2017-04-17T03:55:56.773Z,6.43
2017-04-17T03:56:55.114Z,9.35
2017-04-17T03:57:53.515Z,12.60
2017-04-17T03:58:51.924Z,7.92
2017-04-17T03:59:50.302Z,12.97
2017-04-17T04:00:48.726Z,7.25
2017-04-17T04:01:48.179Z,7.98
2017-04-17T04:02:46.615Z,7.15
2017-04-17T04:03:45.142Z,7.90
2017-04-17T04:04:43.586Z,8.95
2017-04-17T04:05:42.070Z,7.50
2017-04-17T04:06:40.526Z,9.57
2017-04-17T04:07:39.270Z,8.33
2017-04-17T04:08:37.892Z,8.25
2017-04-17T04:09:36.453Z,10.77
2017-04-17T04:10:35.770Z,8.05
2017-04-17T04:11:34.422Z,9.45
2017-04-17T04:12:33.038Z,7.83
2017-04-17T04:13:31.579Z,12.50
2017-04-17T04:14:30.139Z,9.30
2017-04-17T04:15:28.743Z,7.98
2017-04-17T04:16:27.370Z,8.38
2017-04-17T04:17:25.921Z,8.78
2017-04-17T04:18:24.434Z,9.93
2017-04-17T04:19:23.000Z,7.27
2017-04-17T04:20:21.718Z,9.15
2017-04-17T04:21:20.346Z,8.68
2017-04-17T04:22:19.019Z,8.70
2017-04-17T04:23:17.703Z,7.33
2017-04-17T04:24:16.315Z,7.77
2017-04-17T04:25:15.015Z,7.95
2017-04-17T04:26:13.703Z,12.02
2017-04-17T04:27:12.354Z,6.92
2017-04-17T04:28:10.986Z,12.18
2017-04-17T04:29:09.559Z,8.83
2017-04-17T04:30:08.217Z,9.50
2017-04-17T04:31:06.911Z,9.42
2017-04-17T04:32:06.075Z,7.78
2017-04-17T04:33:04.670Z,7.52
2017-04-17T04:34:03.247Z,8.72
2017-04-17T04:35:01.851Z,10.85
2017-04-17T04:36:00.498Z,11.40
2017-04-17T04:36:59.055Z,8.97
2017-04-17T04:37:57.793Z,11.50
2017-04-17T04:38:56.495Z,13.78
2017-04-17T04:39:55.098Z,10.08
2017-04-17T04:40:53.722Z,10.50
2017-04-17T04:41:52.326Z,11.58
2017-04-17T04:42:50.970Z,12.93
2017-04-17T04:43:49.678Z,10.47
2017-04-17T04:44:48.248Z,14.18
2017-04-17T04:45:47.174Z,10.35
2017-04-17T04:46:45.686Z,9.22
2017-04-17T04:47:44.264Z,9.67
2017-04-17T04:48:42.140Z,10.03
2017-04-17T04:49:40.746Z,10.78
2017-04-17T04:50:39.368Z,9.58
2017-04-17T04:51:37.902Z,12.42
2017-04-17T04:52:36.496Z,9.75
2017-04-17T04:53:34.438Z,13.75
2017-04-17T04:54:33.067Z,9.93
2017-04-17T04:55:31.698Z,12.65
2017-04-17T04:56:30.372Z,9.93
2017-04-17T04:57:28.934Z,9.93
2017-04-17T04:58:27.596Z,9.95
2017-04-17T04:59:26.274Z,10.15
2017-04-17T05:00:24.166Z,9.20
2017-04-17T05:01:22.732Z,9.93
2017-04-17T05:02:21.358Z,11.95
2017-04-17T05:03:20.060Z,14.53
2017-04-17T05:04:18.669Z,9.95
2017-04-17T05:05:17.263Z,13.85
2017-04-17T05:06:15.918Z,10.13
2017-04-17T05:07:14.576Z,13.65
2017-04-17T05:08:13.317Z,9.55
2017-04-17T05:09:11.912Z,11.07
2017-04-17T05:10:10.560Z,12.03
2017-04-17T05:11:09.210Z,9.30
2017-04-17T05:12:07.918Z,15.17
2017-04-17T05:13:06.600Z,16.15
2017-04-17T05:14:05.955Z,11.67
2017-04-17T05:15:04.610Z,11.90
2017-04-17T05:16:03.271Z,16.12
2017-04-17T05:17:01.870Z,15.92
2017-04-17T05:18:00.431Z,9.60
2017-04-17T05:18:59.022Z,13.92
2017-04-17T05:19:57.702Z,10.25
2017-04-17T05:20:56.229Z,13.75
2017-04-17T05:21:54.075Z,10.90
2017-04-17T05:22:52.682Z,11.20
2017-04-17T05:23:51.498Z,9.37
2017-04-17T05:24:50.244Z,12.27
2017-04-17T05:25:48.926Z,12.88
2017-04-17T05:26:47.530Z,16.95
2017-04-17T05:27:46.171Z,9.65
2017-04-17T05:28:44.780Z,11.12
2017-04-17T05:29:42.599Z,8.60
2017-04-17T05:30:41.344Z,10.95
2017-04-17T05:31:40.027Z,12.88
2017-04-17T05:32:38.774Z,9.13
2017-04-17T05:33:37.492Z,13.58
2017-04-17T05:34:36.158Z,10.33
2017-04-17T05:35:34.122Z,12.40
2017-04-17T05:36:32.818Z,8.62
2017-04-17T05:37:31.432Z,12.93
2017-04-17T05:38:30.029Z,15.23
2017-04-17T05:39:28.671Z,11.05
2017-04-17T05:40:27.407Z,12.78
2017-04-17T05:41:26.117Z,8.15
2017-04-17T05:42:25.015Z,12.73
2017-04-17T05:43:23.741Z,10.15
2017-04-17T05:44:22.354Z,10.88
2017-04-17T05:45:20.978Z,9.95
2017-04-17T05:46:20.270Z,13.13
2017-04-17T05:47:18.855Z,8.92
2017-04-17T05:48:17.520Z,9.93
2017-04-17T05:49:16.183Z,14.13
2017-04-17T05:50:14.771Z,13.87
2017-04-17T05:51:13.475Z,9.52
2017-04-17T05:52:12.159Z,8.75
2017-04-17T05:53:10.811Z,14.10
2017-04-17T05:54:09.351Z,11.53
2017-04-17T05:55:07.958Z,9.40
2017-04-17T05:56:06.528Z,10.25
2017-04-17T05:57:05.091Z,9.12
2017-04-17T05:58:03.721Z,11.40
2017-04-17T05:59:03.159Z,9.83
2017-04-17T06:00:01.845Z,9.93
2017-04-17T06:01:00.641Z,9.82
2017-04-17T06:01:59.301Z,9.87
2017-04-17T06:02:57.921Z,13.67
2017-04-17T06:03:56.525Z,10.38
2017-04-17T06:04:55.359Z,9.62
2017-04-17T06:05:53.252Z,9.35
2017-04-17T06:06:51.847Z,12.67
2017-04-17T06:07:50.589Z,11.30
2017-04-17T06:08:49.139Z,9.88
2017-04-17T06:09:47.748Z,9.92
2017-04-17T06:10:46.455Z,11.77
2017-04-17T06:11:45.063Z,10.05
2017-04-17T06:12:43.694Z,9.70
2017-04-17T06:13:42.387Z,13.23
2017-04-17T06:14:41.027Z,11.07
2017-04-17T06:15:39.610Z,9.45
2017-04-17T06:16:38.418Z,9.87
2017-04-17T06:17:37.074Z,9.08
2017-04-17T06:18:35.754Z,9.35
2017-04-17T06:19:35.318Z,11.55
2017-04-17T06:20:34.063Z,11.35
2017-04-17T06:21:32.530Z,9.47
2017-04-17T06:22:31.226Z,11.77
2017-04-17T06:23:30.063Z,9.15
2017-04-17T06:24:28.700Z,10.38
2017-04-17T06:25:27.316Z,12.28
2017-04-17T06:26:25.975Z,10.83
2017-04-17T06:27:24.640Z,13.60
2017-04-17T06:28:23.243Z,12.92
2017-04-17T06:29:21.872Z,9.57
2017-04-17T06:30:20.508Z,10.20
2017-04-17T06:31:19.117Z,11.28
2017-04-17T06:32:17.714Z,12.73
2017-04-17T06:33:16.290Z,9.65
2017-04-17T06:34:14.899Z,13.63
2017-04-17T06:35:13.606Z,9.32
2017-04-17T06:36:12.238Z,10.92
2017-04-17T06:37:10.975Z,10.95
2017-04-17T06:38:09.802Z,11.00
2017-04-17T06:42:26.902Z,8.67
2017-04-17T06:43:25.507Z,9.35
2017-04-17T06:44:24.118Z,10.73
2017-04-17T06:45:23.728Z,8.25
2017-04-17T06:46:31.425Z,13.60
2017-04-17T06:48:59.822Z,11.77
2017-04-17T06:49:58.590Z,10.88
2017-04-17T06:50:57.242Z,13.65
2017-04-17T06:51:56.039Z,9.08
2017-04-17T06:52:54.714Z,9.92
2017-04-17T06:53:53.399Z,11.65
2017-04-17T06:54:52.202Z,12.77
2017-04-17T06:55:50.931Z,11.20
2017-04-17T06:56:51.010Z,10.03
2017-04-17T06:59:40.113Z,10.97
2017-04-17T07:00:38.833Z,10.62
2017-04-17T07:01:37.613Z,16.52
2017-04-17T07:02:46.679Z,12.78
2017-04-17T07:03:45.255Z,12.20
2017-04-17T07:04:44.019Z,11.00
2017-04-17T07:05:44.048Z,11.37
2017-04-17T07:06:42.893Z,14.07
2017-04-17T07:07:41.536Z,10.63
2017-04-17T07:08:40.283Z,10.87
2017-04-17T07:09:38.947Z,10.48
2017-04-17T07:10:37.766Z,9.95
2017-04-17T07:11:36.480Z,13.90
2017-04-17T07:12:35.515Z,13.10
2017-04-17T07:13:34.268Z,12.77
2017-04-17T07:14:33.044Z,10.98
2017-04-17T07:15:31.729Z,13.32
2017-04-17T07:16:30.508Z,10.93
2017-04-17T07:17:29.152Z,11.40
2017-04-17T07:18:27.851Z,11.83
2017-04-17T07:19:26.697Z,10.78
2017-04-17T07:20:25.251Z,10.33
2017-04-17T07:21:24.028Z,12.02
2017-04-17T07:22:22.764Z,12.27
2017-04-17T07:23:21.453Z,18.32
2017-04-17T07:24:20.249Z,12.02
2017-04-17T07:25:18.925Z,11.33
2017-04-17T07:26:17.627Z,14.63
2017-04-17T07:27:16.307Z,12.98
2017-04-17T07:28:15.047Z,12.57
2017-04-17T07:29:13.694Z,11.82
2017-04-17T07:30:12.523Z,15.12
2017-04-17T07:31:11.269Z,14.17
2017-04-17T07:32:10.002Z,12.02
2017-04-17T07:33:08.625Z,13.77
2017-04-17T07:34:07.381Z,12.12
2017-04-17T07:35:06.256Z,12.47
2017-04-17T07:36:05.060Z,12.53
2017-04-17T07:37:03.985Z,11.87
2017-04-17T07:38:02.721Z,13.27
2017-04-17T07:39:00.715Z,11.98
2017-04-17T07:39:59.608Z,13.97
2017-04-17T07:40:58.352Z,12.42
2017-04-17T07:41:57.196Z,12.48
2017-04-17T07:42:56.046Z,17.65
2017-04-17T07:43:54.127Z,16.15
2017-04-17T07:44:52.957Z,13.25
2017-04-17T07:45:51.763Z,14.03
2017-04-17T07:46:50.479Z,15.75
2017-04-17T07:47:49.441Z,15.77
2017-04-17T07:48:48.230Z,14.72
2017-04-17T07:49:46.866Z,14.75
2017-04-17T07:50:45.673Z,14.58
2017-04-17T07:51:44.361Z,14.18
2017-04-17T07:52:43.578Z,13.07
2017-04-17T07:53:42.348Z,15.00
2017-04-17T07:54:40.394Z,14.45
2017-04-17T07:55:39.039Z,13.18
2017-04-17T07:57:09.747Z,15.58
2017-04-17T07:58:41.620Z,11.95
2017-04-17T08:01:10.748Z,12.15
2017-04-17T08:02:09.585Z,14.62
2017-04-17T08:03:09.290Z,13.47
2017-04-17T08:04:08.229Z,10.85
2017-04-17T08:05:07.139Z,17.70
2017-04-17T08:06:06.010Z,12.18
2017-04-17T08:07:04.859Z,12.23
2017-04-17T08:08:03.614Z,12.85
2017-04-17T08:11:00.769Z,13.32
2017-04-17T08:11:59.637Z,11.92
2017-04-17T08:12:58.334Z,11.83
2017-04-17T08:13:57.122Z,11.35
2017-04-17T08:14:55.892Z,11.03
2017-04-17T08:15:54.556Z,13.47
2017-04-17T08:16:53.483Z,14.28
2017-04-17T08:17:52.265Z,13.07
2017-04-17T08:18:51.193Z,11.68
2017-04-17T08:19:50.131Z,12.57
2017-04-17T08:20:49.851Z,12.32
2017-04-17T08:21:48.655Z,12.27
2017-04-17T08:22:51.380Z,11.15
2017-04-17T08:30:02.873Z,15.40
2017-04-17T08:34:15.465Z,10.38
2017-04-17T09:39:48.606Z,11.12
2017-04-17T09:40:48.781Z,4.67
2017-04-17T09:41:49.146Z,5.74
2017-04-17T09:42:49.363Z,6.65
2017-04-17T09:43:50.275Z,7.34
2017-04-17T09:44:51.182Z,8.12
2017-04-17T09:45:51.383Z,8.28
2017-04-17T09:46:51.542Z,7.95
2017-04-17T09:47:52.413Z,15.70
2017-04-17T09:48:52.620Z,7.30
2017-04-17T09:49:52.848Z,7.83
2017-04-17T09:50:53.056Z,7.60
2017-04-17T09:51:53.232Z,7.65
2017-04-17T09:52:53.419Z,10.32
2017-04-17T09:53:53.602Z,6.55
2017-04-17T09:54:53.768Z,8.73
2017-04-17T09:55:54.039Z,8.03
2017-04-17T09:56:54.237Z,10.43
2017-04-17T09:57:54.434Z,9.78
2017-04-17T09:58:55.404Z,8.20
2017-04-17T09:59:56.325Z,6.74
2017-04-17T10:00:57.928Z,9.30
2017-04-17T10:01:58.127Z,7.40
2017-04-17T10:02:59.108Z,7.60
2017-04-17T10:03:59.277Z,10.67
2017-04-17T10:04:59.451Z,11.70
2017-04-17T10:06:00.522Z,9.08
2017-04-17T10:07:00.688Z,6.75
2017-04-17T10:08:01.663Z,11.53
2017-04-17T10:09:01.815Z,10.98
2017-04-17T10:10:02.117Z,7.77
2017-04-17T10:11:02.371Z,8.02
2017-04-17T10:12:02.530Z,7.67
2017-04-17T10:13:02.775Z,7.18
2017-04-17T10:14:03.172Z,7.38
2017-04-17T10:15:03.347Z,7.93
2017-04-17T10:16:03.555Z,11.22
2017-04-17T10:17:03.731Z,10.88
2017-04-17T10:18:03.895Z,7.72
2017-04-17T10:19:04.046Z,10.68
2017-04-17T10:20:04.927Z,10.52
2017-04-17T10:21:05.086Z,3.65
2017-04-17T10:22:05.286Z,10.73
2017-04-17T10:23:44.787Z,10.47
2017-04-17T10:24:44.980Z,9.35
2017-04-17T11:47:57.537Z,4.13
2017-04-17T11:49:02.717Z,4.27
2017-04-17T11:55:57.814Z,4.27
2017-04-17T11:56:58.670Z,3.07
2017-04-17T11:57:58.793Z,3.33
2017-04-17T11:58:58.942Z,3.10
2017-04-17T11:59:59.133Z,3.57
2017-04-17T12:00:59.839Z,3.72
2017-04-17T12:02:04.422Z,3.35
2017-04-17T12:03:04.766Z,3.34
2017-04-17T12:04:05.722Z,4.32
2017-04-17T12:05:07.209Z,3.23
2017-04-17T12:06:07.615Z,3.38
2017-04-17T12:07:08.190Z,3.20
2017-04-17T12:08:08.418Z,3.03
2017-04-17T12:09:10.170Z,3.47
2017-04-17T12:10:10.393Z,3.87
2017-04-17T12:11:12.592Z,3.80
2017-04-17T12:12:12.827Z,3.42
2017-04-17T12:13:13.630Z,3.25
2017-04-17T12:14:13.818Z,3.37
2017-04-17T12:15:14.318Z,2.85
2017-04-17T12:16:15.421Z,3.48
2017-04-17T12:17:15.611Z,3.32
2017-04-17T12:18:16.163Z,3.32
2017-04-17T12:19:17.514Z,3.32
2017-04-17T12:20:17.779Z,3.15
2017-04-17T12:21:18.007Z,3.65
2017-04-17T12:22:24.499Z,3.07
2017-04-17T12:23:26.195Z,3.45
2017-04-17T12:24:32.499Z,3.67
2017-04-17T12:25:36.350Z,3.57
2017-04-17T12:26:39.712Z,2.80
2017-04-17T12:27:41.202Z,2.48
2017-04-17T12:28:45.393Z,3.10
2017-04-17T12:29:45.666Z,3.13
2017-04-17T12:30:45.871Z,3.03
2017-04-17T12:31:46.815Z,3.00
2017-04-17T12:32:47.051Z,3.02
2017-04-17T12:33:47.949Z,2.57
2017-04-17T12:34:48.413Z,3.35
2017-04-17T12:35:48.577Z,3.75
2017-04-17T12:36:48.755Z,3.25
2017-04-17T12:37:48.878Z,3.80
2017-04-17T12:38:49.268Z,5.37
2017-04-17T12:39:50.210Z,3.03
2017-04-17T12:40:50.502Z,3.47
2017-04-17T12:41:50.853Z,4.03
2017-04-17T12:42:50.991Z,3.33
2017-04-17T12:43:51.212Z,4.15
2017-04-17T12:44:51.562Z,4.45
2017-04-17T12:45:51.782Z,4.20
2017-04-17T12:46:51.922Z,4.15
2017-04-17T12:47:51.061Z,4.18
2017-04-17T12:48:51.182Z,4.28
2017-04-17T12:49:51.906Z,4.03
2017-04-17T12:50:52.030Z,4.72
2017-04-17T12:51:52.999Z,4.27
2017-04-17T12:52:53.498Z,6.33
2017-04-17T12:53:53.775Z,4.68
2017-04-17T12:54:54.229Z,4.65
2017-04-17T12:55:55.643Z,4.17
2017-04-17T12:56:57.006Z,4.00
2017-04-17T12:57:57.425Z,4.07
2017-04-17T12:58:57.842Z,5.28
2017-04-17T12:59:59.105Z,4.78
2017-04-17T13:00:59.343Z,4.57
2017-04-17T13:02:00.086Z,4.53
2017-04-17T13:03:00.346Z,5.00
2017-04-17T13:04:00.966Z,5.02
2017-04-17T13:05:01.201Z,4.33
2017-04-17T13:06:02.326Z,3.95
2017-04-17T13:07:02.879Z,4.00
2017-04-17T13:08:03.090Z,4.05
2017-04-17T13:09:03.939Z,3.93
2017-04-17T13:10:05.262Z,4.12
2017-04-17T13:11:05.626Z,4.57
2017-04-17T13:12:05.934Z,8.33
2017-04-17T13:13:06.356Z,3.80
2017-04-17T13:14:07.090Z,4.63
2017-04-17T13:15:08.969Z,5.10
2017-04-17T13:16:09.198Z,4.08
2017-04-17T13:17:09.466Z,4.75
2017-04-17T13:18:10.063Z,3.88
2017-04-17T13:19:10.351Z,3.38
2017-04-17T13:20:11.063Z,4.30
2017-04-17T13:21:11.270Z,3.35
2017-04-17T13:22:11.559Z,4.03
2017-04-17T13:23:11.800Z,3.88
2017-04-17T13:24:12.018Z,4.28
2017-04-17T13:25:12.271Z,10.80
2017-04-17T13:26:12.507Z,4.80
2017-04-17T13:27:13.258Z,4.78
2017-04-17T13:28:14.157Z,4.18
2017-04-17T13:29:16.067Z,4.83
2017-04-17T13:30:17.206Z,4.40
2017-04-17T13:31:18.321Z,3.98
2017-04-17T13:32:19.367Z,4.52
2017-04-17T13:33:20.280Z,4.35
2017-04-17T13:34:20.446Z,5.35
2017-04-17T13:35:20.674Z,4.05
2017-04-17T13:36:20.876Z,4.73
2017-04-17T13:37:21.226Z,5.38
2017-04-17T13:38:21.506Z,4.33
2017-04-17T13:39:21.740Z,4.50
2017-04-17T13:40:22.999Z,5.03
2017-04-17T13:41:23.843Z,3.93
2017-04-17T13:42:24.212Z,4.73
2017-04-17T13:43:25.763Z,4.75
2017-04-17T13:44:26.049Z,5.55
2017-04-17T13:45:26.275Z,5.05
2017-04-17T13:46:26.415Z,5.27
2017-04-17T13:47:26.739Z,5.78
2017-04-17T13:48:27.141Z,5.27
2017-04-17T13:49:27.503Z,5.98
2017-04-17T13:50:27.813Z,5.77
2017-04-17T13:51:28.423Z,5.05
2017-04-17T13:52:28.874Z,5.58
2017-04-17T13:53:29.022Z,5.77
2017-04-17T13:54:29.625Z,6.28
2017-04-17T13:55:30.122Z,6.15
2017-04-17T13:56:30.633Z,6.60
2017-04-17T13:57:31.094Z,6.07
2017-04-17T13:58:32.036Z,6.03
2017-04-17T13:59:32.255Z,5.62
2017-04-17T14:00:33.122Z,7.58
2017-04-17T14:01:33.231Z,5.42
2017-04-17T14:02:33.684Z,6.98
2017-04-17T14:03:33.786Z,6.45
2017-04-17T14:04:35.730Z,5.10
2017-04-17T14:05:36.130Z,5.37
2017-04-17T14:06:36.571Z,7.20
2017-04-17T14:07:37.022Z,5.23
2017-04-17T14:08:37.712Z,5.38
2017-04-17T14:09:38.130Z,5.25
2017-04-17T14:10:38.590Z,5.57
2017-04-17T14:11:39.126Z,6.03
2017-04-17T14:12:39.639Z,6.75
2017-04-17T14:13:40.016Z,6.82
2017-04-17T14:14:40.207Z,5.92
2017-04-17T14:15:40.406Z,5.88
2017-04-17T14:16:40.718Z,6.70
2017-04-17T14:17:41.003Z,6.55
2017-04-17T14:18:41.479Z,6.28
2017-04-17T14:19:41.736Z,6.28
2017-04-17T14:20:42.355Z,6.20
2017-04-17T14:21:42.493Z,5.80
2017-04-17T14:22:42.649Z,6.68
2017-04-17T14:23:42.873Z,6.83
2017-04-17T14:24:43.311Z,6.40
2017-04-17T14:25:43.643Z,6.27
2017-04-17T14:26:44.031Z,5.38
2017-04-17T14:27:44.524Z,6.83
2017-04-17T14:28:44.895Z,6.28
2017-04-17T14:29:45.070Z,5.98
2017-04-17T14:30:45.299Z,6.50
2017-04-17T14:31:45.706Z,6.63
2017-04-17T14:32:46.018Z,6.90
2017-04-17T14:33:46.434Z,7.85
2017-04-17T14:34:46.602Z,6.53
2017-04-17T14:35:46.773Z,6.95
2017-04-17T14:36:46.999Z,6.37
2017-04-17T14:37:47.782Z,6.60
2017-04-17T14:38:49.259Z,6.60
2017-04-17T14:39:49.556Z,6.10
2017-04-17T14:40:49.786Z,5.82
2017-04-17T14:41:49.944Z,6.30
2017-04-17T14:42:50.091Z,6.67
2017-04-17T14:43:50.482Z,5.88
2017-04-17T14:44:50.622Z,5.60
2017-04-17T14:45:50.785Z,6.22
2017-04-17T14:46:50.922Z,5.60
2017-04-17T14:47:51.807Z,5.27
2017-04-17T14:48:51.949Z,5.28
2017-04-17T14:49:52.118Z,5.45
2017-04-17T14:50:52.248Z,5.83
2017-04-17T14:51:52.370Z,7.43
2017-04-17T14:52:52.498Z,6.00
2017-04-17T14:53:53.417Z,6.08
2017-04-17T14:54:53.542Z,5.43
2017-04-17T14:55:53.692Z,5.80
2017-04-17T14:56:53.822Z,5.65
2017-04-17T14:57:53.947Z,5.18
2017-04-17T14:58:54.077Z,5.18
2017-04-17T14:59:54.973Z,5.25
2017-04-17T15:00:55.214Z,6.07
2017-04-17T15:01:55.891Z,5.07
2017-04-17T15:02:56.119Z,5.73
2017-04-17T15:03:56.258Z,5.20
2017-04-17T15:04:56.378Z,5.47
2017-04-17T15:05:56.550Z,5.57
2017-04-17T15:06:57.424Z,4.47
2017-04-17T15:07:57.566Z,6.58
2017-04-17T15:08:57.691Z,5.92
2017-04-17T15:09:58.287Z,5.27
2017-04-17T15:10:58.425Z,11.38
2017-04-17T15:11:58.528Z,6.47
2017-04-17T15:12:58.658Z,8.25
2017-04-17T15:13:58.784Z,6.08
2017-04-17T15:14:58.905Z,5.83
2017-04-17T15:15:59.050Z,5.15
2017-04-17T15:16:59.532Z,4.87
2017-04-17T15:17:59.665Z,5.12
2017-04-17T15:18:59.926Z,5.83
2017-04-17T15:20:00.138Z,5.27
2017-04-17T15:21:00.947Z,5.75
2017-04-17T15:22:02.680Z,6.25
2017-04-17T15:23:03.246Z,5.05
2017-04-17T15:24:03.694Z,6.10
2017-04-17T15:25:04.357Z,5.12
2017-04-17T15:26:05.524Z,2.95
2017-04-17T15:27:05.742Z,3.80
2017-04-17T15:28:06.634Z,5.65
2017-04-17T15:29:07.255Z,3.35
2017-04-17T15:30:07.366Z,3.82
2017-04-17T15:31:08.235Z,3.25
2017-04-17T15:32:09.753Z,4.05
2017-04-17T15:33:09.846Z,3.47
2017-04-17T15:34:09.995Z,2.90
2017-04-17T15:35:11.783Z,2.73
2017-04-17T15:36:12.038Z,4.62
2017-04-17T15:37:12.717Z,2.60
2017-04-17T15:38:14.744Z,2.72
2017-04-17T15:39:15.475Z,3.57
2017-04-17T15:40:16.487Z,2.75
2017-04-17T15:41:17.797Z,2.58
2017-04-17T15:42:19.174Z,2.53
2017-04-17T15:43:20.672Z,2.60
2017-04-17T15:44:21.897Z,18.30
2017-04-17T15:45:22.637Z,3.48
2017-04-17T15:46:23.434Z,2.80
2017-04-17T15:47:25.679Z,3.68
2017-04-17T15:48:26.283Z,5.32
2017-04-17T15:49:27.899Z,2.72
2017-04-17T15:50:29.066Z,3.20
2017-04-17T15:51:30.283Z,4.62
2017-04-17T15:52:31.235Z,4.85
2017-04-17T15:53:33.866Z,4.38
2017-04-17T15:54:35.628Z,4.63
2017-04-17T15:55:38.282Z,4.50